createdAt,value
2017-06-11T00:01:09.339Z,91.30
2017-06-11T00:03:36.875Z,91.30
2017-06-11T00:06:04.450Z,91.30
2017-06-11T00:08:31.988Z,91.40
2017-06-11T00:10:59.526Z,91.30
2017-06-11T00:13:27.108Z,91.40
2017-06-11T00:15:54.697Z,91.40
2017-06-11T00:18:22.293Z,91.40
2017-06-11T00:20:50.138Z,91.30
2017-06-11T00:23:17.670Z,91.50
2017-06-11T00:25:45.241Z,91.60
2017-06-11T00:28:12.811Z,91.50
2017-06-11T00:30:40.376Z,91.50
2017-06-11T00:33:07.953Z,91.60
2017-06-11T00:35:35.481Z,91.60
2017-06-11T00:38:03.032Z,91.50
2017-06-11T00:40:30.613Z,91.60
2017-06-11T00:42:58.152Z,91.50
2017-06-11T00:45:25.729Z,91.50
2017-06-11T00:47:53.296Z,91.50
2017-06-11T00:50:20.854Z,91.40
2017-06-11T00:52:48.443Z,91.50
2017-06-11T00:55:15.994Z,91.60
2017-06-11T00:57:43.518Z,91.60
2017-06-11T01:00:11.055Z,91.50
2017-06-11T01:02:38.619Z,91.70
2017-06-11T01:05:06.180Z,91.60
2017-06-11T01:07:33.746Z,91.60
2017-06-11T01:10:01.320Z,91.50
2017-06-11T01:12:28.849Z,91.50
2017-06-11T01:14:56.401Z,91.60
2017-06-11T01:17:24.965Z,91.80
2017-06-11T01:19:52.528Z,91.70
2017-06-11T01:22:20.079Z,91.70
2017-06-11T01:24:47.675Z,91.70
2017-06-11T01:27:15.221Z,91.70
2017-06-11T01:29:42.766Z,91.70
2017-06-11T01:32:10.392Z,91.80
2017-06-11T01:34:37.938Z,91.70
2017-06-11T01:37:05.493Z,91.80
2017-06-11T01:39:34.067Z,91.80
2017-06-11T01:42:01.642Z,91.90
2017-06-11T01:44:29.205Z,91.80
2017-06-11T01:46:56.767Z,91.80
2017-06-11T01:49:24.345Z,92.00
2017-06-11T01:51:51.896Z,92.10
2017-06-11T01:54:19.473Z,92.10
2017-06-11T01:56:47.022Z,92.10
2017-06-11T01:59:14.615Z,92.10
2017-06-11T02:01:42.432Z,92.20
2017-06-11T02:04:10.381Z,92.40
2017-06-11T02:06:37.951Z,92.40
2017-06-11T02:09:05.521Z,92.40
2017-06-11T02:11:33.057Z,92.40
2017-06-11T02:14:00.624Z,92.40
2017-06-11T02:16:28.332Z,92.60
2017-06-11T02:18:55.867Z,92.70
2017-06-11T02:21:23.394Z,92.60
2017-06-11T02:23:50.983Z,92.50
2017-06-11T02:26:18.530Z,92.60
2017-06-11T02:28:46.080Z,92.70
2017-06-11T02:31:13.641Z,92.60
2017-06-11T02:33:41.264Z,92.50
2017-06-11T02:36:08.824Z,92.30
2017-06-11T02:38:36.355Z,92.50
2017-06-11T02:41:03.916Z,92.40
2017-06-11T02:43:31.482Z,92.40
2017-06-11T02:45:59.051Z,92.60
2017-06-11T02:48:26.597Z,92.50
2017-06-11T02:50:54.185Z,92.30
2017-06-11T02:53:21.744Z,92.30
2017-06-11T02:55:50.035Z,92.60
2017-06-11T02:58:17.583Z,92.60
2017-06-11T03:00:45.154Z,92.70
2017-06-11T03:03:12.690Z,92.70
2017-06-11T03:05:40.265Z,92.50
2017-06-11T03:08:07.789Z,92.50
2017-06-11T03:10:35.358Z,92.50
2017-06-11T03:13:02.919Z,92.60
2017-06-11T03:15:30.479Z,92.50
2017-06-11T03:17:58.062Z,92.40
2017-06-11T03:20:25.612Z,92.50
2017-06-11T03:22:53.151Z,92.40
2017-06-11T03:25:20.735Z,92.40
2017-06-11T03:27:48.278Z,92.30
2017-06-11T03:30:15.861Z,92.40
2017-06-11T03:32:43.458Z,92.30
2017-06-11T03:35:11.040Z,92.30
2017-06-11T03:37:38.592Z,92.40
2017-06-11T03:40:06.173Z,92.20
2017-06-11T03:42:33.734Z,92.30
2017-06-11T03:45:01.287Z,92.20
2017-06-11T03:47:29.696Z,92.20
2017-06-11T03:49:57.259Z,92.30
2017-06-11T03:52:24.860Z,92.40
2017-06-11T03:54:52.386Z,92.60
2017-06-11T03:57:19.933Z,92.30
2017-06-11T03:59:48.493Z,92.30
2017-06-11T04:02:16.065Z,92.20
2017-06-11T04:04:43.621Z,92.10
2017-06-11T04:07:11.189Z,92.00
2017-06-11T04:09:38.719Z,91.80
2017-06-11T04:12:06.268Z,91.80
2017-06-11T04:14:33.835Z,91.80
2017-06-11T04:17:01.408Z,91.70
2017-06-11T04:19:28.950Z,91.60
2017-06-11T04:21:56.519Z,91.60
2017-06-11T04:24:24.068Z,91.60
2017-06-11T04:26:51.610Z,91.40
2017-06-11T04:29:19.188Z,91.00
2017-06-11T04:31:47.209Z,90.10
2017-06-11T04:34:15.644Z,90.00
2017-06-11T04:36:44.206Z,87.60
2017-06-11T04:39:11.773Z,85.20
2017-06-11T04:41:39.344Z,82.20
2017-06-11T04:44:06.894Z,81.70
2017-06-11T04:46:34.467Z,81.40
2017-06-11T04:49:01.989Z,81.20
2017-06-11T04:51:29.519Z,81.60
2017-06-11T04:53:57.083Z,82.70
2017-06-11T04:56:24.611Z,83.50
2017-06-11T04:58:52.172Z,84.40
2017-06-11T05:01:21.039Z,85.00
2017-06-11T05:03:48.665Z,85.50
2017-06-11T05:06:16.388Z,85.40
2017-06-11T05:08:44.160Z,86.00
2017-06-11T05:11:11.729Z,86.00
2017-06-11T05:13:39.271Z,85.00
2017-06-11T05:16:06.922Z,82.90
2017-06-11T05:18:34.484Z,80.20
2017-06-11T05:21:02.048Z,77.70
2017-06-11T05:23:29.634Z,74.30
2017-06-11T05:25:57.427Z,71.50
2017-06-11T05:28:25.224Z,69.50
2017-06-11T05:30:52.803Z,68.00
2017-06-11T05:33:20.575Z,66.10
2017-06-11T05:35:48.383Z,63.60
2017-06-11T05:38:15.993Z,61.10
2017-06-11T05:40:43.549Z,58.60
2017-06-11T05:43:11.112Z,57.30
2017-06-11T05:45:38.642Z,57.30
2017-06-11T05:48:06.177Z,56.30
2017-06-11T05:50:33.857Z,55.00
2017-06-11T05:53:01.412Z,55.70
2017-06-11T05:55:28.930Z,54.90
2017-06-11T05:57:56.487Z,52.80
2017-06-11T06:00:24.528Z,51.60
2017-06-11T06:02:52.243Z,50.80
2017-06-11T06:05:20.226Z,48.80
2017-06-11T06:07:47.968Z,48.30
2017-06-11T06:10:15.712Z,49.50
2017-06-11T06:12:44.072Z,49.20
2017-06-11T06:15:11.806Z,49.00
2017-06-11T06:17:39.431Z,48.70
2017-06-11T06:20:07.011Z,48.30
2017-06-11T06:22:34.564Z,48.00
2017-06-11T06:25:02.116Z,47.60
2017-06-11T06:27:29.672Z,47.00
2017-06-11T06:29:57.224Z,46.00
2017-06-11T06:32:24.783Z,47.70
2017-06-11T06:34:52.359Z,48.30
2017-06-11T06:37:19.917Z,48.10
2017-06-11T06:39:47.513Z,49.70
2017-06-11T06:42:15.094Z,50.90
2017-06-11T06:44:42.635Z,51.20
2017-06-11T06:47:10.172Z,53.40
2017-06-11T06:49:37.735Z,54.00
2017-06-11T06:52:05.344Z,52.40
2017-06-11T06:54:32.894Z,52.20
2017-06-11T06:57:01.433Z,51.80
2017-06-11T06:59:28.972Z,51.70
2017-06-11T07:01:56.522Z,49.00
2017-06-11T07:04:24.095Z,50.10
2017-06-11T07:06:51.639Z,51.40
2017-06-11T07:09:22.561Z,52.70
2017-06-11T07:11:54.032Z,52.50
2017-06-11T07:14:23.665Z,53.40
2017-06-11T07:16:51.223Z,50.50
2017-06-11T07:19:18.775Z,49.70
2017-06-11T07:21:46.329Z,51.00
2017-06-11T07:24:13.916Z,47.10
2017-06-11T07:26:41.471Z,46.60
2017-06-11T07:29:09.005Z,46.80
2017-06-11T07:31:36.596Z,47.50
2017-06-11T07:34:04.164Z,45.00
2017-06-11T07:36:31.725Z,44.60
2017-06-11T07:38:59.318Z,44.40
2017-06-11T07:41:26.866Z,43.80
2017-06-11T07:43:54.470Z,43.80
2017-06-11T07:46:22.077Z,42.10
2017-06-11T07:48:49.599Z,37.70
2017-06-11T07:51:17.158Z,35.90
2017-06-11T07:53:45.404Z,35.80
2017-06-11T07:56:12.947Z,37.40
2017-06-11T07:58:41.212Z,38.80
2017-06-11T08:01:08.811Z,37.60
2017-06-11T08:03:36.692Z,34.70
2017-06-11T08:06:04.267Z,35.80
2017-06-11T08:08:31.843Z,36.00
2017-06-11T08:10:59.404Z,35.60
2017-06-11T08:13:26.931Z,34.50
2017-06-11T08:15:54.486Z,33.20
2017-06-11T08:18:22.019Z,32.70
2017-06-11T08:20:49.582Z,33.20
2017-06-11T08:23:17.142Z,35.50
2017-06-11T08:25:44.747Z,34.00
2017-06-11T08:28:12.328Z,33.40
2017-06-11T08:30:39.908Z,34.60
2017-06-11T08:33:07.467Z,33.30
2017-06-11T08:35:35.064Z,34.70
2017-06-11T08:38:02.641Z,34.50
2017-06-11T08:40:33.764Z,30.90
2017-06-11T08:43:01.386Z,31.80
2017-06-11T08:45:28.948Z,30.70
2017-06-11T08:47:56.499Z,28.30
2017-06-11T08:50:24.083Z,30.00
2017-06-11T08:52:51.630Z,28.60
2017-06-11T08:55:19.289Z,30.50
2017-06-11T08:57:46.872Z,29.70
2017-06-11T09:00:14.428Z,31.10
2017-06-11T09:02:42.015Z,32.00
2017-06-11T09:05:09.611Z,31.50
2017-06-11T09:07:37.157Z,31.10
2017-06-11T09:10:04.819Z,31.80
2017-06-11T09:12:32.398Z,30.00
2017-06-11T09:14:59.947Z,30.30
2017-06-11T09:18:50.613Z,30.90
2017-06-11T09:21:18.225Z,30.90
2017-06-11T09:23:45.760Z,29.90
2017-06-11T09:26:13.354Z,29.10
2017-06-11T09:28:40.941Z,29.50
2017-06-11T09:31:08.518Z,28.90
2017-06-11T09:33:36.264Z,28.50
2017-06-11T09:36:03.823Z,28.90
2017-06-11T09:38:31.505Z,27.80
2017-06-11T09:40:59.081Z,27.40
2017-06-11T09:43:26.645Z,27.10
2017-06-11T09:45:54.187Z,24.90
2017-06-11T09:48:21.763Z,26.00
2017-06-11T09:50:49.298Z,25.90
2017-06-11T09:53:16.848Z,27.40
2017-06-11T09:55:44.506Z,25.30
2017-06-11T09:58:12.102Z,26.10
2017-06-11T10:00:39.807Z,27.20
2017-06-11T10:03:07.476Z,27.80
2017-06-11T10:05:35.048Z,27.00
2017-06-11T10:08:02.853Z,26.70
2017-06-11T10:10:30.428Z,27.20
2017-06-11T10:12:58.048Z,26.30
2017-06-11T10:15:25.633Z,26.40
2017-06-11T10:17:53.253Z,26.30
2017-06-11T10:20:20.860Z,23.30
2017-06-11T10:22:49.829Z,25.00
2017-06-11T10:25:17.530Z,23.90
2017-06-11T10:27:45.470Z,21.60
2017-06-11T10:30:13.100Z,22.80
2017-06-11T10:32:40.964Z,22.70
2017-06-11T10:35:08.579Z,23.50
2017-06-11T10:37:36.187Z,25.20
2017-06-11T10:40:03.769Z,23.20
2017-06-11T10:42:31.530Z,23.30
2017-06-11T10:44:59.119Z,23.80
2017-06-11T10:47:26.680Z,23.00
2017-06-11T10:49:54.299Z,23.50
2017-06-11T10:52:21.939Z,22.80
2017-06-11T10:54:49.529Z,22.60
2017-06-11T10:57:18.050Z,23.70
2017-06-11T10:59:45.613Z,24.10
2017-06-11T11:02:13.231Z,23.10
2017-06-11T11:04:41.327Z,22.70
2017-06-11T11:07:08.870Z,22.00
2017-06-11T11:09:36.434Z,23.30
2017-06-11T11:12:05.040Z,23.60
2017-06-11T11:14:32.583Z,23.40
2017-06-11T11:17:01.170Z,23.20
2017-06-11T11:19:28.732Z,22.10
2017-06-11T11:21:56.294Z,23.40
2017-06-11T11:24:23.855Z,23.00
2017-06-11T11:26:51.397Z,22.10
2017-06-11T11:29:18.961Z,23.00
2017-06-11T11:31:46.583Z,22.00
2017-06-11T11:34:14.127Z,21.10
2017-06-11T11:36:41.674Z,23.40
2017-06-11T11:39:09.235Z,23.40
2017-06-11T11:41:36.973Z,20.40
2017-06-11T11:44:04.778Z,22.20
2017-06-11T11:46:32.686Z,23.70
2017-06-11T11:49:00.539Z,21.00
2017-06-11T11:51:28.417Z,20.00
2017-06-11T11:53:58.428Z,19.50
2017-06-11T11:56:27.394Z,19.50
2017-06-11T11:58:55.262Z,18.50
2017-06-11T12:01:24.531Z,19.40
2017-06-11T12:03:52.394Z,20.20
2017-06-11T12:06:19.980Z,20.40
2017-06-11T12:08:47.554Z,22.10
2017-06-11T12:11:15.279Z,18.90
2017-06-11T12:13:42.976Z,19.20
2017-06-11T12:16:10.545Z,18.40
2017-06-11T12:18:38.150Z,18.20
2017-06-11T12:21:05.786Z,17.90
2017-06-11T12:23:33.338Z,18.70
2017-06-11T12:26:00.883Z,19.90
2017-06-11T12:28:28.460Z,18.50
2017-06-11T12:30:55.995Z,18.40
2017-06-11T12:33:23.526Z,19.00
2017-06-11T12:35:51.115Z,19.10
2017-06-11T12:38:18.679Z,18.70
2017-06-11T12:40:46.220Z,20.80
2017-06-11T12:43:13.856Z,20.50
2017-06-11T12:45:41.417Z,19.20
2017-06-11T12:48:08.948Z,19.00
2017-06-11T12:50:36.523Z,21.00
2017-06-11T12:53:04.081Z,19.30
2017-06-11T12:55:31.625Z,18.90
2017-06-11T12:57:59.178Z,18.90
2017-06-11T13:00:26.740Z,18.60
2017-06-11T13:02:54.310Z,19.30
2017-06-11T13:05:21.881Z,18.10
2017-06-11T13:07:49.720Z,19.40
2017-06-11T13:10:17.501Z,19.20
2017-06-11T13:12:45.093Z,21.20
2017-06-11T13:15:12.721Z,19.80
2017-06-11T13:17:40.282Z,20.60
2017-06-11T13:20:07.879Z,18.10
2017-06-11T13:22:35.492Z,19.50
2017-06-11T13:25:03.057Z,17.70
2017-06-11T13:27:30.640Z,19.90
2017-06-11T13:29:58.205Z,18.20
2017-06-11T13:32:25.970Z,18.10
2017-06-11T13:34:53.600Z,19.60
2017-06-11T13:37:21.210Z,19.60
2017-06-11T13:39:48.876Z,19.50
2017-06-11T13:42:16.464Z,20.10
2017-06-11T13:44:44.057Z,18.40
2017-06-11T13:47:11.650Z,19.90
2017-06-11T13:49:42.276Z,18.90
2017-06-11T13:52:09.911Z,19.80
2017-06-11T13:54:37.509Z,18.20
2017-06-11T14:00:12.255Z,19.70
2017-06-11T14:02:41.329Z,17.60
2017-06-11T14:05:09.748Z,19.20
2017-06-11T14:07:39.507Z,18.60
2017-06-11T14:10:07.362Z,17.60
2017-06-11T14:12:35.104Z,18.20
2017-06-11T14:15:02.665Z,18.90
2017-06-11T14:17:30.252Z,21.20
2017-06-11T14:19:57.828Z,19.10
2017-06-11T14:22:25.655Z,20.50
2017-06-11T14:24:53.524Z,19.40
2017-06-11T14:27:21.293Z,20.20
2017-06-11T14:29:49.021Z,18.90
2017-06-11T14:32:16.747Z,19.80
2017-06-11T14:34:56.718Z,19.60
2017-06-11T14:37:24.282Z,19.70
2017-06-11T14:39:51.835Z,21.10
2017-06-11T14:42:19.390Z,18.70
2017-06-11T14:44:46.934Z,19.60
2017-06-11T14:47:14.482Z,20.00
2017-06-11T14:49:42.053Z,18.90
2017-06-11T14:52:09.654Z,19.00
2017-06-11T14:54:37.201Z,19.80
2017-06-11T14:57:18.087Z,18.90
2017-06-11T14:59:45.746Z,19.10
2017-06-11T15:02:13.351Z,18.70
2017-06-11T15:04:40.952Z,18.10
2017-06-11T15:07:08.520Z,17.70
2017-06-11T15:09:43.590Z,19.30
2017-06-11T15:12:13.001Z,18.70
2017-06-11T15:14:48.519Z,20.20
2017-06-11T15:17:16.972Z,19.90
2017-06-11T15:19:44.513Z,17.40
2017-06-11T15:22:12.097Z,17.30
2017-06-11T15:24:39.684Z,19.10
2017-06-11T15:27:07.297Z,20.50
2017-06-11T15:29:35.042Z,20.00
2017-06-11T15:32:02.660Z,19.70
2017-06-11T15:34:30.252Z,19.70
2017-06-11T15:36:57.880Z,19.30
2017-06-11T15:39:25.443Z,19.50
2017-06-11T15:41:53.085Z,19.00
2017-06-11T15:44:20.649Z,19.70
2017-06-11T15:46:48.371Z,19.10
2017-06-11T15:49:15.959Z,18.60
2017-06-11T15:51:45.538Z,19.40
2017-06-11T15:54:13.139Z,19.70
2017-06-11T15:56:40.697Z,19.90
2017-06-11T15:59:24.922Z,20.20
2017-06-11T16:01:58.283Z,20.10
2017-06-11T16:04:26.213Z,20.00
2017-06-11T16:07:15.541Z,20.00
2017-06-11T16:09:47.675Z,18.50
2017-06-11T16:12:15.519Z,20.10
2017-06-11T16:14:43.061Z,19.30
2017-06-11T16:17:10.630Z,20.40
2017-06-11T16:19:38.235Z,20.20
2017-06-11T16:22:05.859Z,20.40
2017-06-11T16:24:33.450Z,21.00
2017-06-11T16:27:01.163Z,21.20
2017-06-11T16:29:28.708Z,19.90
2017-06-11T16:31:56.290Z,21.00
2017-06-11T16:34:23.834Z,21.20
2017-06-11T16:36:51.355Z,22.50
2017-06-11T16:39:18.932Z,22.00
2017-06-11T16:41:47.456Z,23.00
2017-06-11T16:44:16.586Z,24.00
2017-06-11T16:46:44.288Z,25.20
2017-06-11T16:49:11.861Z,27.30
2017-06-11T16:51:39.398Z,28.30
2017-06-11T16:54:07.027Z,29.40
2017-06-11T16:56:34.642Z,29.40
2017-06-11T16:59:02.224Z,31.70
2017-06-11T17:01:29.818Z,33.30
2017-06-11T17:03:57.432Z,33.90
2017-06-11T17:06:25.013Z,34.60
2017-06-11T17:08:53.053Z,34.40
2017-06-11T17:11:23.325Z,35.20
2017-06-11T17:13:50.876Z,35.80
2017-06-11T17:16:18.886Z,36.80
2017-06-11T17:18:46.447Z,36.20
2017-06-11T17:21:14.022Z,37.60
2017-06-11T17:23:41.609Z,37.10
2017-06-11T17:26:09.474Z,37.30
2017-06-11T17:28:37.075Z,37.40
2017-06-11T17:31:04.723Z,37.80
2017-06-11T17:33:32.309Z,37.90
2017-06-11T17:35:59.910Z,37.90
2017-06-11T17:38:27.488Z,38.20
2017-06-11T17:40:55.057Z,38.70
2017-06-11T17:43:22.596Z,39.10
2017-06-11T17:45:50.132Z,39.20
2017-06-11T17:48:17.692Z,39.40
2017-06-11T17:50:45.236Z,39.40
2017-06-11T17:53:12.763Z,39.80
2017-06-11T17:55:40.322Z,39.50
2017-06-11T17:58:07.854Z,39.90
2017-06-11T18:00:35.375Z,42.10
2017-06-11T18:03:02.941Z,42.00
2017-06-11T18:05:30.474Z,42.40
2017-06-11T18:07:58.034Z,42.80
2017-06-11T18:10:25.615Z,42.70
2017-06-11T18:12:53.156Z,43.70
2017-06-11T18:15:20.684Z,43.70
2017-06-11T18:17:48.259Z,44.50
2017-06-11T18:20:15.793Z,45.30
2017-06-11T18:22:43.340Z,46.30
2017-06-11T18:25:10.898Z,46.70
2017-06-11T18:27:38.441Z,47.70
2017-06-11T18:30:06.016Z,48.60
2017-06-11T18:32:33.581Z,48.60
2017-06-11T18:35:01.124Z,48.90
2017-06-11T18:37:28.658Z,48.00
2017-06-11T18:39:56.224Z,49.10
2017-06-11T18:42:23.834Z,49.60
2017-06-11T18:44:51.392Z,50.70
2017-06-11T18:47:18.966Z,51.40
2017-06-11T18:49:46.512Z,51.30
2017-06-11T18:52:14.071Z,51.60
2017-06-11T18:54:41.642Z,52.70
2017-06-11T18:57:09.192Z,53.70
2017-06-11T18:59:36.740Z,53.80
2017-06-11T19:02:04.329Z,54.40
2017-06-11T19:04:31.892Z,54.50
2017-06-11T19:06:59.663Z,55.00
2017-06-11T19:09:27.253Z,55.80
2017-06-11T19:11:54.838Z,56.60
2017-06-11T19:14:22.456Z,59.20
2017-06-11T19:16:50.058Z,59.70
2017-06-11T19:19:17.659Z,60.20
2017-06-11T19:21:45.209Z,60.90
2017-06-11T19:24:12.797Z,60.80
2017-06-11T19:26:40.350Z,61.30
2017-06-11T19:29:07.899Z,61.60
2017-06-11T19:31:35.474Z,62.60
2017-06-11T19:34:03.107Z,61.60
2017-06-11T19:36:30.695Z,62.50
2017-06-11T19:38:58.258Z,62.10
2017-06-11T19:41:25.824Z,63.70
2017-06-11T19:43:53.367Z,63.70
2017-06-11T19:46:21.012Z,63.50
2017-06-11T19:48:48.565Z,64.70
2017-06-11T19:51:16.127Z,65.90
2017-06-11T19:53:43.687Z,66.20
2017-06-11T19:56:11.237Z,64.30
2017-06-11T19:58:38.807Z,64.50
2017-06-11T20:01:06.373Z,63.50
2017-06-11T20:03:33.962Z,63.50
2017-06-11T20:06:01.546Z,63.20
2017-06-11T20:08:29.117Z,66.50
2017-06-11T20:10:56.688Z,67.80
2017-06-11T20:13:24.220Z,66.90
2017-06-11T20:15:51.791Z,65.50
2017-06-11T20:18:20.872Z,67.10
2017-06-11T20:20:48.404Z,67.80
2017-06-11T20:23:16.977Z,68.30
2017-06-11T20:25:44.573Z,68.60
2017-06-11T20:28:12.119Z,67.70
2017-06-11T20:30:39.699Z,68.90
2017-06-11T20:33:07.257Z,70.50
2017-06-11T20:35:34.820Z,70.60
2017-06-11T20:38:02.393Z,70.70
2017-06-11T20:40:30.007Z,70.90
2017-06-11T20:42:57.591Z,70.80
2017-06-11T20:45:25.167Z,70.60
2017-06-11T20:47:52.761Z,71.00
2017-06-11T20:50:21.843Z,70.50
2017-06-11T20:52:49.412Z,69.90
2017-06-11T20:55:17.029Z,70.20
2017-06-11T20:57:44.597Z,70.70
2017-06-11T21:00:13.515Z,72.30
2017-06-11T21:02:41.070Z,72.00
2017-06-11T21:05:08.685Z,71.10
2017-06-11T21:07:36.271Z,71.40
2017-06-11T21:10:03.832Z,71.90
2017-06-11T21:12:31.372Z,71.50
2017-06-11T21:14:59.392Z,71.80
2017-06-11T21:17:26.950Z,71.60
2017-06-11T21:19:54.593Z,71.90
2017-06-11T21:22:22.145Z,71.50
2017-06-11T21:24:53.832Z,72.30
2017-06-11T21:27:21.427Z,73.30
2017-06-11T21:29:48.963Z,73.90
2017-06-11T21:32:16.624Z,73.70
2017-06-11T21:34:44.251Z,73.90
2017-06-11T21:37:11.853Z,74.00
2017-06-11T21:39:39.572Z,74.50
2017-06-11T21:42:08.133Z,75.40
2017-06-11T21:44:35.694Z,76.20
2017-06-11T21:47:03.252Z,76.50
2017-06-11T21:49:30.823Z,76.30
2017-06-11T21:51:59.213Z,76.80
2017-06-11T21:54:27.015Z,76.40
2017-06-11T21:56:54.729Z,76.80
2017-06-11T21:59:22.439Z,76.90
2017-06-11T22:01:50.153Z,76.60
2017-06-11T22:04:17.914Z,76.80
2017-06-11T22:06:45.474Z,77.00
2017-06-11T22:09:13.073Z,76.70
2017-06-11T22:11:40.641Z,76.00
2017-06-11T22:14:08.209Z,75.80
2017-06-11T22:16:35.762Z,75.90
2017-06-11T22:19:04.311Z,75.60
2017-06-11T22:21:31.836Z,74.70
2017-06-11T22:23:59.385Z,74.40
2017-06-11T22:26:26.954Z,73.00
2017-06-11T22:28:54.521Z,71.50
2017-06-11T22:31:22.063Z,70.40
2017-06-11T22:33:49.608Z,70.30
2017-06-11T22:36:17.139Z,68.60
2017-06-11T22:38:44.688Z,68.80
2017-06-11T22:41:12.295Z,69.00
2017-06-11T22:43:39.857Z,69.90
2017-06-11T22:46:07.442Z,71.00
2017-06-11T22:48:35.316Z,71.40
2017-06-11T22:51:02.872Z,71.40
2017-06-11T22:53:30.711Z,72.10
2017-06-11T22:55:58.313Z,71.10
2017-06-11T22:58:25.871Z,70.80
2017-06-11T23:00:53.492Z,70.40
2017-06-11T23:03:21.053Z,69.20
2017-06-11T23:05:48.594Z,69.00
2017-06-11T23:08:16.148Z,68.90
2017-06-11T23:10:43.707Z,69.70
2017-06-11T23:13:11.249Z,70.30
2017-06-11T23:15:38.783Z,70.00
2017-06-11T23:18:08.053Z,71.10
2017-06-11T23:20:35.600Z,71.00
2017-06-11T23:23:03.161Z,70.80
2017-06-11T23:25:30.715Z,71.10
2017-06-11T23:27:58.246Z,70.10
2017-06-11T23:30:25.802Z,69.60
2017-06-11T23:32:53.352Z,69.20
2017-06-11T23:35:20.886Z,69.20
2017-06-11T23:37:48.447Z,68.20
2017-06-11T23:40:16.012Z,67.90
2017-06-11T23:42:43.540Z,67.90
2017-06-11T23:45:11.127Z,67.50
2017-06-11T23:47:38.659Z,67.10
2017-06-11T23:50:06.204Z,66.60
2017-06-11T23:52:33.761Z,66.50
2017-06-11T23:55:01.324Z,66.10
2017-06-11T23:57:28.847Z,65.50
2017-06-11T23:59:56.424Z,65.00
